Terminal Aerodrome Forecast
Issued by NWS

Home | Current Version | Previous Version | Text Only | Print | Product List | Glossary On
Versions: 1 2 3 4 5 6 7 8 9 10 11 12 13 14 15 16 17 18 19 20 21 22 23 24
000
FTUS44 KOUN 231724
TAFPNC
TAF
KPNC 231724Z 2318/2418 17021G31KT P6SM BKN020
      TEMPO 2319/2320 SCT023
     FM232000 17026G36KT P6SM SCT027
     FM240100 18024G34KT P6SM BKN150=

USA.gov is the U.S. government's official web portal to all federal, state and local government web resources and services.